Time;durP1;ratioP1;P1;durP2;ratioP2;P2;SDS_P1;SDS_P2;PMS_P1;PMS_P2;Temp;Humidity;BMP_temperature;BMP_pressure;BME280_temperature;BME280_humidity;BME280_pressure;Samples;Min_cycle;Max_cycle;Signal;HPM_P1;HPM_P2
2021/04/21 00:00:51;;;;;;;10.25;7.72;;;10.60;99.90;;;;;;4934307;29;20039;-76
2021/04/21 00:03:18;;;;;;;12.02;8.05;;;10.60;99.90;;;;;;4933817;29;20078;-76
2021/04/21 00:05:46;;;;;;;15.07;8.50;;;10.60;99.90;;;;;;4933894;29;20035;-76
2021/04/21 00:08:11;;;;;;;11.70;7.15;;;10.60;99.90;;;;;;4934117;29;20496;-76
2021/04/21 00:10:38;;;;;;;12.57;7.65;;;10.60;99.90;;;;;;4933867;29;20051;-76
2021/04/21 00:13:08;;;;;;;16.38;10.27;;;10.70;99.90;;;;;;4933958;29;20461;-76
2021/04/21 00:15:34;;;;;;;15.98;10.48;;;10.60;99.90;;;;;;4933083;29;20048;-76
2021/04/21 00:18:02;;;;;;;15.48;10.45;;;10.70;99.90;;;;;;4933671;29;20056;-76
2021/04/21 00:20:29;;;;;;;15.15;8.98;;;10.70;99.90;;;;;;4937462;29;20216;-76
2021/04/21 00:22:58;;;;;;;9.23;6.63;;;10.70;99.90;;;;;;4936406;29;20035;-76
2021/04/21 00:25:26;;;;;;;8.25;6.43;;;10.60;99.90;;;;;;4936389;29;20040;-76
2021/04/21 00:27:53;;;;;;;12.85;7.28;;;10.60;99.90;;;;;;4936618;29;20036;-76
2021/04/21 00:30:23;;;;;;;9.27;6.35;;;10.60;99.90;;;;;;4937320;29;20524;-76
2021/04/21 00:32:51;;;;;;;9.45;7.15;;;10.60;99.90;;;;;;4937363;29;20032;-76
2021/04/21 00:35:24;;;;;;;11.02;6.38;;;10.60;99.90;;;;;;4937024;29;20048;-76
2021/04/21 00:37:53;;;;;;;11.55;6.30;;;10.60;99.90;;;;;;4936414;29;20057;-76
2021/04/21 00:40:28;;;;;;;11.82;8.77;;;10.60;99.90;;;;;;4938997;29;20070;-76
2021/04/21 00:42:56;;;;;;;12.52;7.70;;;10.60;99.90;;;;;;4927301;29;20102;-77
2021/04/21 00:45:32;;;;;;;13.07;8.57;;;10.50;99.90;;;;;;4943171;29;20032;-76
2021/04/21 00:48:22;;;;;;;12.57;7.57;;;10.50;99.90;;;;;;4931569;29;20032;-76
2021/04/21 00:50:56;;;;;;;14.60;8.15;;;10.50;99.90;;;;;;4937018;29;20043;-76
2021/04/21 00:53:33;;;;;;;19.50;10.55;;;10.50;99.90;;;;;;4936755;29;20026;-76
2021/04/21 00:56:19;;;;;;;14.90;9.73;;;10.50;99.90;;;;;;4936850;29;20098;-75
2021/04/21 00:59:03;;;;;;;13.65;9.27;;;10.50;99.90;;;;;;4924645;29;20024;-76
2021/04/21 01:01:31;;;;;;;14.10;8.48;;;10.50;99.90;;;;;;4936904;29;20038;-76
2021/04/21 01:03:57;;;;;;;14.65;9.10;;;10.50;99.90;;;;;;4936680;29;20024;-75
2021/04/21 01:06:30;;;;;;;14.00;8.30;;;10.50;99.90;;;;;;4936400;29;20032;-77
2021/04/21 01:08:58;;;;;;;16.70;8.45;;;10.40;99.90;;;;;;4936925;29;20561;-76
2021/04/21 01:11:33;;;;;;;15.32;8.80;;;10.40;99.90;;;;;;4936738;29;20055;-76
2021/04/21 01:14:03;;;;;;;26.08;8.15;;;10.50;99.90;;;;;;4923986;29;20071;-77
2021/04/21 01:16:32;;;;;;;14.35;8.40;;;10.50;99.90;;;;;;4936105;29;20067;-76
2021/04/21 01:19:01;;;;;;;12.20;8.30;;;10.50;99.90;;;;;;4936218;29;20047;-76
2021/04/21 01:22:01;;;;;;;15.55;9.10;;;10.50;99.90;;;;;;4935776;29;20099;-76
2021/04/21 01:24:39;;;;;;;15.68;9.95;;;10.50;99.90;;;;;;4918924;29;20091;-76
2021/04/21 01:27:08;;;;;;;12.68;9.00;;;10.60;99.90;;;;;;4936572;29;20095;-76
2021/04/21 01:29:49;;;;;;;17.33;10.23;;;10.50;99.90;;;;;;4935907;29;20042;-76
2021/04/21 01:32:25;;;;;;;15.00;9.48;;;10.60;99.90;;;;;;4934222;29;20024;-77
2021/04/21 01:34:53;;;;;;;15.63;9.40;;;10.60;99.90;;;;;;4936567;29;20028;-76
2021/04/21 01:37:31;;;;;;;16.15;9.90;;;10.60;99.90;;;;;;4935594;29;20040;-76
2021/04/21 01:40:20;;;;;;;17.73;12.20;;;10.60;99.90;;;;;;4936343;29;20036;-77
2021/04/21 01:42:51;;;;;;;16.80;11.18;;;10.60;99.90;;;;;;4935384;29;20493;-76
2021/04/21 01:45:29;;;;;;;16.80;11.32;;;10.60;99.90;;;;;;4936469;29;20039;-76
2021/04/21 01:47:59;;;;;;;15.70;10.68;;;10.70;99.90;;;;;;4935809;29;20039;-76
2021/04/21 01:50:25;;;;;;;16.40;9.55;;;10.70;99.90;;;;;;4935514;29;20029;-76
2021/04/21 01:53:17;;;;;;;10.05;7.70;;;10.70;99.90;;;;;;4936012;29;20066;-76
2021/04/21 01:56:09;;;;;;;14.48;8.43;;;10.70;99.90;;;;;;4915712;29;20078;-76
2021/04/21 01:58:59;;;;;;;11.85;8.38;;;10.60;99.90;;;;;;4942907;29;20109;-76
2021/04/21 02:01:37;;;;;;;14.50;8.38;;;10.60;99.90;;;;;;4949061;29;20424;-76
2021/04/21 02:04:41;;;;;;;14.15;7.50;;;10.60;99.90;;;;;;4940698;29;20023;-76
2021/04/21 02:07:31;;;;;;;11.63;8.05;;;10.50;99.90;;;;;;4922104;29;20036;-76
2021/04/21 02:10:16;;;;;;;11.98;7.63;;;10.40;99.90;;;;;;4935264;29;20035;-76
2021/04/21 02:13:05;;;;;;;18.35;8.30;;;10.40;99.90;;;;;;4946795;29;20114;-76
2021/04/21 02:16:05;;;;;;;10.77;7.93;;;10.40;99.90;;;;;;4940170;29;20078;-76
2021/04/21 02:18:49;;;;;;;15.77;8.85;;;10.40;99.90;;;;;;4938699;29;20484;-76
2021/04/21 02:21:26;;;;;;;16.33;9.95;;;10.40;99.90;;;;;;4935865;29;20048;-77
2021/04/21 02:24:07;;;;;;;17.98;11.93;;;10.40;99.90;;;;;;4935231;29;20020;-77
2021/04/21 02:27:10;;;;;;;17.23;10.90;;;10.40;99.90;;;;;;4935517;29;20032;-76
2021/04/21 02:29:58;;;;;;;17.60;10.48;;;10.40;99.90;;;;;;4902566;29;20050;-76
2021/04/21 02:33:01;;;;;;;18.95;10.88;;;10.40;99.90;;;;;;4938339;29;20028;-76
2021/04/21 02:35:46;;;;;;;16.85;10.95;;;10.40;99.90;;;;;;4931625;29;20051;-76
2021/04/21 02:38:39;;;;;;;12.63;9.00;;;10.30;99.90;;;;;;4933554;29;20035;-76
2021/04/21 02:41:13;;;;;;;12.77;8.07;;;10.30;99.90;;;;;;4934261;29;20433;-76
2021/04/21 02:43:56;;;;;;;12.90;7.93;;;10.30;99.90;;;;;;4934555;29;20091;-76
2021/04/21 02:46:52;;;;;;;10.02;7.30;;;10.20;99.90;;;;;;4934792;29;20036;-75
2021/04/21 02:49:43;;;;;;;14.80;7.85;;;10.30;99.90;;;;;;4934493;29;20031;-76
2021/04/21 02:52:45;;;;;;;12.15;7.07;;;10.20;99.90;;;;;;4935007;29;20020;-76
2021/04/21 02:55:13;;;;;;;9.45;6.88;;;10.20;99.90;;;;;;4930937;29;20078;-76
2021/04/21 02:58:08;;;;;;;9.30;6.90;;;10.20;99.90;;;;;;4934856;29;20032;-75
2021/04/21 03:00:59;;;;;;;12.18;6.30;;;10.10;99.90;;;;;;4934079;29;20040;-76
2021/04/21 03:03:35;;;;;;;9.00;6.22;;;10.10;99.90;;;;;;4932657;29;20036;-76
2021/04/21 03:06:11;;;;;;;8.13;6.07;;;10.10;99.90;;;;;;4934339;29;20045;-76
2021/04/21 03:08:42;;;;;;;10.07;7.28;;;10.10;99.90;;;;;;4934402;29;20397;-76
2021/04/21 03:11:14;;;;;;;10.75;7.35;;;10.00;99.90;;;;;;4933561;29;20024;-75
2021/04/21 03:14:21;;;;;;;12.48;7.97;;;9.90;99.90;;;;;;4936521;29;20044;-76
2021/04/21 03:16:50;;;;;;;14.32;8.32;;;9.90;99.90;;;;;;4933887;29;20497;-76
2021/04/21 03:19:22;;;;;;;11.40;7.90;;;9.90;99.90;;;;;;4934094;29;20511;-76
2021/04/21 03:22:01;;;;;;;13.43;9.27;;;9.90;99.90;;;;;;4933942;29;20055;-75
2021/04/21 03:24:31;;;;;;;12.05;8.48;;;9.90;99.90;;;;;;4932670;29;20058;-76
2021/04/21 03:27:05;;;;;;;11.77;7.57;;;9.90;99.90;;;;;;4933708;29;20519;-76
2021/04/21 03:29:37;;;;;;;13.98;7.35;;;9.80;99.90;;;;;;4933425;29;20044;-76
2021/04/21 03:32:07;;;;;;;11.85;8.18;;;9.80;99.90;;;;;;4933311;29;20155;-75
2021/04/21 03:34:35;;;;;;;13.13;7.97;;;9.80;99.90;;;;;;4939674;29;20032;-75
2021/04/21 03:37:01;;;;;;;15.57;7.85;;;9.70;99.90;;;;;;4938431;29;20046;-75
2021/04/21 03:39:27;;;;;;;8.70;7.60;;;9.70;99.90;;;;;;4936788;29;20449;-75
2021/04/21 03:41:54;;;;;;;10.88;6.38;;;9.70;99.90;;;;;;4933517;29;20126;-76
2021/04/21 03:44:20;;;;;;;7.80;6.10;;;9.70;99.90;;;;;;4933725;29;20457;-76
2021/04/21 03:46:47;;;;;;;8.93;5.78;;;9.70;99.90;;;;;;4934582;29;20126;-76
2021/04/21 03:49:13;;;;;;;8.52;5.47;;;9.70;99.90;;;;;;4934161;29;20504;-75
2021/04/21 03:51:41;;;;;;;6.25;4.80;;;9.70;99.90;;;;;;4917189;29;20268;-75
2021/04/21 03:54:08;;;;;;;10.00;5.28;;;9.60;99.90;;;;;;4934301;29;20032;-75
2021/04/21 03:56:36;;;;;;;7.53;4.47;;;9.60;99.90;;;;;;4934861;29;20100;-77
2021/04/21 03:59:03;;;;;;;7.05;4.72;;;9.60;99.90;;;;;;4939315;29;20032;-76
2021/04/21 04:01:29;;;;;;;5.65;4.35;;;9.50;99.90;;;;;;4942107;29;20038;-76
2021/04/21 04:04:01;;;;;;;9.48;4.10;;;9.50;99.90;;;;;;4920508;29;20393;-75
2021/04/21 04:06:46;;;;;;;9.07;4.38;;;9.50;99.90;;;;;;4937043;29;20544;-76
2021/04/21 04:09:14;;;;;;;7.20;4.30;;;9.50;99.90;;;;;;4937287;29;20031;-76
2021/04/21 04:11:56;;;;;;;6.68;5.20;;;9.50;99.90;;;;;;4937151;29;20039;-76
2021/04/21 04:14:29;;;;;;;4.30;3.90;;;9.50;99.90;;;;;;4936464;29;20079;-76
2021/04/21 04:16:57;;;;;;;8.30;5.00;;;9.60;99.90;;;;;;4942744;29;20056;-76
2021/04/21 04:19:24;;;;;;;4.57;3.60;;;9.60;99.90;;;;;;4945999;29;20121;-76
2021/04/21 04:22:07;;;;;;;4.55;3.67;;;9.60;99.90;;;;;;4936293;29;20044;-76
2021/04/21 04:24:53;;;;;;;8.77;3.88;;;9.60;99.90;;;;;;4937495;29;20038;-75
2021/04/21 04:27:21;;;;;;;4.70;3.60;;;9.70;99.90;;;;;;4936860;29;20031;-75
2021/04/21 04:29:49;;;;;;;6.57;3.70;;;9.70;99.90;;;;;;4936778;29;20067;-75
2021/04/21 04:32:21;;;;;;;3.80;3.15;;;9.70;99.90;;;;;;4935707;29;20031;-76
2021/04/21 04:34:48;;;;;;;;;;;9.70;99.90;;;;;;4936031;29;20515;-75
2021/04/21 04:37:16;;;;;;;5.80;3.65;;;9.80;99.90;;;;;;4944051;29;19915;-76
2021/04/21 04:39:42;;;;;;;5.32;3.72;;;9.90;99.90;;;;;;4937330;29;20059;-75
2021/04/21 04:42:10;;;;;;;6.18;3.67;;;10.00;99.90;;;;;;4919014;29;20047;-76
2021/04/21 04:44:41;;;;;;;6.57;3.50;;;10.10;99.90;;;;;;4923640;29;20027;-75
2021/04/21 04:47:11;;;;;;;6.80;4.05;;;10.30;99.90;;;;;;4936978;29;20091;-75
2021/04/21 04:49:47;;;;;;;4.88;3.38;;;10.60;99.90;;;;;;4936338;29;20038;-75
2021/04/21 04:52:15;;;;;;;10.48;3.50;;;11.30;99.90;;;;;;4936044;29;20469;-76
2021/04/21 04:54:42;;;;;;;7.50;4.05;;;12.10;99.90;;;;;;4935595;29;20036;-78
2021/04/21 04:57:09;;;;;;;4.07;3.08;;;12.90;99.90;;;;;;4938380;29;20044;-76
2021/04/21 04:59:37;;;;;;;7.80;3.58;;;13.70;99.90;;;;;;4945292;29;20045;-76
2021/04/21 05:02:06;;;;;;;4.30;3.28;;;14.30;99.90;;;;;;4952167;29;20046;-76
2021/04/21 05:04:47;;;;;;;8.88;3.20;;;14.90;99.90;;;;;;4941320;29;20028;-79
2021/04/21 05:07:20;;;;;;;3.72;2.67;;;15.60;99.90;;;;;;4935969;29;20184;-76
2021/04/21 05:09:51;;;;;;;4.43;2.95;;;16.10;99.90;;;;;;4935785;29;20047;-77
2021/04/21 05:12:21;;;;;;;3.75;2.80;;;16.60;99.90;;;;;;4936543;29;20079;-76
2021/04/21 05:14:49;;;;;;;10.65;2.60;;;16.90;99.90;;;;;;4937127;29;20122;-76
2021/04/21 05:17:20;;;;;;;6.55;3.25;;;17.30;99.90;;;;;;4941061;29;20100;-76
2021/04/21 05:20:29;;;;;;;4.97;2.45;;;17.60;99.90;;;;;;4946268;29;20032;-76
2021/04/21 05:23:31;;;;;;;3.95;2.78;;;17.80;99.90;;;;;;4934557;29;20039;-76
2021/04/21 05:26:17;;;;;;;11.27;3.17;;;17.90;99.90;;;;;;4933871;29;20066;-76
2021/04/21 05:29:05;;;;;;;9.18;3.50;;;18.40;99.90;;;;;;4918762;29;20038;-79
2021/04/21 05:31:51;;;;;;;3.95;3.05;;;19.20;99.90;;;;;;4934686;29;20039;-77
2021/04/21 05:34:23;;;;;;;6.95;3.00;;;19.60;99.90;;;;;;4934144;29;20460;-77
2021/04/21 05:37:07;;;;;;;7.93;3.05;;;20.00;99.70;;;;;;4934426;29;20059;-77
2021/04/21 05:39:47;;;;;;;8.32;3.63;;;20.10;98.60;;;;;;4935426;29;20087;-76
2021/04/21 05:42:32;;;;;;;9.98;3.80;;;20.40;97.60;;;;;;4934853;29;20075;-77
2021/04/21 05:45:22;;;;;;;8.30;3.72;;;20.70;96.90;;;;;;4928654;29;20062;-77
2021/04/21 05:48:11;;;;;;;11.95;3.72;;;21.40;95.90;;;;;;4932289;29;20039;-77
2021/04/21 05:51:26;;;;;;;6.80;3.72;;;22.30;94.30;;;;;;4933915;29;20474;-77
2021/04/21 05:54:13;;;;;;;9.20;3.55;;;23.10;92.00;;;;;;4916786;29;20035;-77
2021/04/21 05:57:13;;;;;;;8.13;3.47;;;23.50;91.20;;;;;;4934766;29;20035;-78
2021/04/21 06:00:06;;;;;;;11.32;4.00;;;24.60;88.60;;;;;;4935070;29;20032;-78
2021/04/21 06:02:34;;;;;;;9.27;4.28;;;24.80;86.20;;;;;;4933183;29;20094;-78
2021/04/21 06:05:08;;;;;;;9.18;3.60;;;25.60;83.70;;;;;;4917938;29;20038;-77
2021/04/21 06:07:35;;;;;;;12.38;4.10;;;26.10;81.30;;;;;;4934797;29;20031;-79
2021/04/21 06:10:27;;;;;;;11.20;4.95;;;26.40;78.80;;;;;;4934468;29;20564;-78
2021/04/21 06:13:00;;;;;;;8.07;3.97;;;26.70;77.20;;;;;;4931311;29;20030;-78
2021/04/21 06:15:28;;;;;;;8.75;3.75;;;26.40;75.20;;;;;;4916730;29;20036;-77
2021/04/21 06:17:59;;;;;;;12.15;4.93;;;26.10;75.10;;;;;;4934664;29;20040;-77
2021/04/21 06:20:44;;;;;;;10.68;4.25;;;26.00;74.40;;;;;;4933762;29;20035;-78
2021/04/21 06:23:14;;;;;;;8.70;4.28;;;26.30;74.40;;;;;;4934073;29;20425;-78
2021/04/21 06:26:08;;;;;;;42.00;4.38;;;27.00;73.40;;;;;;4933903;29;20027;-78
2021/04/21 06:28:34;;;;;;;14.25;4.30;;;27.60;71.70;;;;;;4932621;29;20484;-77
2021/04/21 06:31:10;;;;;;;9.13;4.70;;;28.60;69.60;;;;;;4933702;29;20078;-79
2021/04/21 06:33:37;;;;;;;10.27;3.92;;;28.80;68.10;;;;;;4935315;29;20047;-77
2021/04/21 06:36:05;;;;;;;10.38;4.20;;;29.00;66.50;;;;;;4933875;29;20044;-78
2021/04/21 06:38:33;;;;;;;11.85;4.30;;;29.20;66.20;;;;;;4934008;29;20028;-78
2021/04/21 06:40:59;;;;;;;11.07;3.80;;;29.30;66.00;;;;;;4934271;29;20032;-78
2021/04/21 06:43:43;;;;;;;12.45;4.15;;;29.10;65.30;;;;;;4933480;29;20198;-78
2021/04/21 06:46:12;;;;;;;11.45;4.40;;;29.40;65.00;;;;;;4933124;29;20051;-78
2021/04/21 06:48:39;;;;;;;8.70;4.05;;;29.90;63.80;;;;;;4934111;29;20032;-76
2021/04/21 06:51:12;;;;;;;12.07;4.60;;;30.50;62.90;;;;;;4934883;29;20091;-78
2021/04/21 06:53:39;;;;;;;9.25;3.80;;;31.10;62.70;;;;;;4933831;29;20023;-78
2021/04/21 06:56:08;;;;;;;6.90;3.75;;;31.70;61.20;;;;;;4933422;29;20047;-79
2021/04/21 06:58:35;;;;;;;8.25;4.30;;;32.20;60.00;;;;;;4933950;29;20059;-78
2021/04/21 07:01:30;;;;;;;9.43;4.13;;;32.00;59.50;;;;;;4934076;29;20040;-78
2021/04/21 07:04:16;;;;;;;9.18;4.50;;;33.00;59.10;;;;;;4932564;29;20034;-81
2021/04/21 07:06:43;;;;;;;10.05;3.72;;;34.00;57.70;;;;;;4933349;29;20039;-78
2021/04/21 07:09:13;;;;;;;7.80;3.33;;;34.80;56.70;;;;;;4934976;29;20027;-79
2021/04/21 07:11:41;;;;;;;7.43;3.90;;;34.60;55.90;;;;;;4933979;29;20036;-79
2021/04/21 07:14:08;;;;;;;13.07;3.90;;;34.60;55.50;;;;;;4933646;29;20032;-78
2021/04/21 07:16:35;;;;;;;13.25;5.03;;;34.30;55.70;;;;;;4933737;29;20051;-79
2021/04/21 07:19:05;;;;;;;14.25;5.25;;;34.50;55.90;;;;;;4934173;29;20453;-79
2021/04/21 07:21:33;;;;;;;14.60;5.18;;;35.20;54.90;;;;;;4933844;29;20400;-78
2021/04/21 07:24:01;;;;;;;11.40;5.35;;;34.90;54.60;;;;;;4933747;29;20035;-78
2021/04/21 07:26:41;;;;;;;13.00;5.35;;;33.80;55.10;;;;;;4932770;29;20028;-78
2021/04/21 07:29:18;;;;;;;15.98;6.82;;;32.20;56.70;;;;;;4935071;29;20036;-78
2021/04/21 07:31:44;;;;;;;21.35;6.78;;;31.80;57.00;;;;;;4937994;29;20051;-78
2021/04/21 07:34:14;;;;;;;16.67;6.63;;;31.90;56.90;;;;;;4936490;29;20489;-80
2021/04/21 07:36:46;;;;;;;17.98;6.95;;;32.80;56.50;;;;;;4937563;29;20043;-82
2021/04/21 07:39:12;;;;;;;14.68;7.63;;;32.60;56.40;;;;;;4937079;29;20043;-81
2021/04/21 07:41:47;;;;;;;15.63;7.72;;;32.00;56.50;;;;;;4937040;29;20049;-82
2021/04/21 07:44:36;;;;;;;70.70;60.67;;;32.00;56.90;;;;;;4937369;29;20047;-78
2021/04/21 07:47:07;;;;;;;158.68;142.20;;;30.30;58.20;;;;;;4937743;29;20498;-80
2021/04/21 07:49:35;;;;;;;41.25;28.17;;;28.40;60.70;;;;;;4936851;29;20488;-78
2021/04/21 07:52:01;;;;;;;23.05;11.40;;;27.20;63.00;;;;;;4936935;29;20159;-77
2021/04/21 07:54:29;;;;;;;24.45;10.38;;;26.70;64.00;;;;;;4937911;29;20115;-82
2021/04/21 07:57:02;;;;;;;31.05;12.35;;;26.90;63.60;;;;;;4921321;29;20124;-76
2021/04/21 07:59:34;;;;;;;25.40;11.38;;;26.80;62.40;;;;;;4935569;29;20067;-76
2021/04/21 08:02:18;;;;;;;29.40;10.95;;;26.70;63.10;;;;;;4937755;29;20410;-75
2021/04/21 08:04:51;;;;;;;25.95;10.60;;;26.40;63.90;;;;;;4936388;29;20067;-76
2021/04/21 08:07:32;;;;;;;23.50;10.20;;;26.30;63.60;;;;;;4935607;29;20035;-76
2021/04/21 08:10:00;;;;;;;21.67;9.82;;;26.30;63.70;;;;;;4935877;29;20057;-76
2021/04/21 08:12:28;;;;;;;24.23;9.85;;;26.20;64.10;;;;;;4937531;29;20027;-75
2021/04/21 08:15:00;;;;;;;26.10;10.52;;;26.00;64.40;;;;;;4933679;29;20437;-77
2021/04/21 08:17:26;;;;;;;21.30;9.13;;;25.80;65.00;;;;;;4934984;29;20031;-76
2021/04/21 08:19:58;;;;;;;23.70;9.23;;;25.60;65.50;;;;;;4935206;29;20040;-77
2021/04/21 08:22:29;;;;;;;23.90;9.70;;;25.20;66.00;;;;;;4935867;29;20508;-77
2021/04/21 08:24:57;;;;;;;26.85;9.95;;;24.60;67.10;;;;;;4936161;29;20051;-77
2021/04/21 08:27:24;;;;;;;26.00;10.77;;;24.10;68.30;;;;;;4936673;29;20024;-77
2021/04/21 08:29:50;;;;;;;25.48;9.38;;;23.90;68.30;;;;;;4937250;29;20425;-77
2021/04/21 08:32:24;;;;;;;22.75;10.07;;;23.70;69.40;;;;;;4936715;29;20020;-78
2021/04/21 08:34:51;;;;;;;29.27;11.10;;;23.70;68.70;;;;;;4930097;29;20500;-77
2021/04/21 08:37:18;;;;;;;27.17;10.00;;;23.90;69.00;;;;;;4937145;29;20089;-78
2021/04/21 08:39:45;;;;;;;27.88;9.88;;;23.90;68.20;;;;;;4937076;29;20377;-76
2021/04/21 08:42:13;;;;;;;22.33;9.70;;;24.10;68.40;;;;;;4937091;29;20465;-80
2021/04/21 08:44:41;;;;;;;32.15;9.45;;;23.80;68.80;;;;;;4936399;29;20381;-78
2021/04/21 08:47:13;;;;;;;20.65;9.07;;;23.70;69.00;;;;;;4935711;29;20023;-78
2021/04/21 08:49:39;;;;;;;;;;;23.60;68.60;;;;;;4937244;29;20498;-77
2021/04/21 08:52:06;;;;;;;24.13;9.13;;;23.70;68.60;;;;;;4936910;29;19964;-78
2021/04/21 08:54:33;;;;;;;20.50;8.73;;;23.70;68.60;;;;;;4935662;29;20497;-77
2021/04/21 08:57:00;;;;;;;21.67;8.57;;;23.80;68.10;;;;;;4936504;29;20064;-78
2021/04/21 08:59:26;;;;;;;23.27;8.68;;;23.90;68.70;;;;;;4936833;29;20039;-78
2021/04/21 09:01:52;;;;;;;22.13;9.45;;;23.90;68.40;;;;;;4936026;29;20063;-80
2021/04/21 09:04:18;;;;;;;17.38;7.80;;;23.80;68.20;;;;;;4936533;29;20115;-78
2021/04/21 09:06:46;;;;;;;22.77;8.90;;;23.60;69.10;;;;;;4936329;29;20032;-78
2021/04/21 09:09:15;;;;;;;20.80;8.68;;;23.40;69.40;;;;;;4936738;29;20039;-78
2021/04/21 09:11:41;;;;;;;25.15;8.85;;;23.10;70.40;;;;;;4919966;29;20485;-77
2021/04/21 09:14:08;;;;;;;18.83;8.55;;;22.70;71.10;;;;;;4936357;29;20043;-80
2021/04/21 09:16:34;;;;;;;24.88;9.85;;;22.30;71.70;;;;;;4935893;29;20401;-79
2021/04/21 09:19:06;;;;;;;22.70;9.15;;;22.10;72.60;;;;;;4936438;29;20036;-78
2021/04/21 09:21:33;;;;;;;20.48;8.57;;;22.00;73.30;;;;;;4936175;29;20496;-78
2021/04/21 09:23:59;;;;;;;15.07;8.57;;;22.00;74.20;;;;;;4936079;29;20417;-77
2021/04/21 09:26:36;;;;;;;11.90;6.53;;;21.90;74.20;;;;;;4935382;29;20043;-78
2021/04/21 09:29:03;;;;;;;14.25;7.20;;;21.80;74.80;;;;;;4935839;29;20038;-79
2021/04/21 09:31:31;;;;;;;13.65;6.75;;;21.70;75.30;;;;;;4935941;29;20032;-78
2021/04/21 09:34:10;;;;;;;10.98;6.30;;;21.50;76.10;;;;;;4935752;29;20036;-77
2021/04/21 09:36:42;;;;;;;8.20;5.38;;;21.30;76.80;;;;;;4934920;29;20048;-78
2021/04/21 09:39:09;;;;;;;7.10;5.47;;;21.20;77.70;;;;;;4936018;29;20380;-78
2021/04/21 09:41:36;;;;;;;9.52;5.35;;;21.20;78.50;;;;;;4935701;29;20114;-79
2021/04/21 09:44:31;;;;;;;8.80;5.95;;;21.30;78.60;;;;;;4935865;29;20032;-78
2021/04/21 09:47:10;;;;;;;12.43;5.75;;;21.50;78.30;;;;;;4926600;29;20028;-79
2021/04/21 09:49:40;;;;;;;11.90;5.35;;;21.70;78.10;;;;;;4935704;29;20357;-78
2021/04/21 09:52:11;;;;;;;7.45;5.80;;;22.00;78.40;;;;;;4933837;29;20124;-79
2021/04/21 09:54:41;;;;;;;8.32;5.40;;;22.10;78.50;;;;;;4934271;29;20496;-79
2021/04/21 09:57:10;;;;;;;12.48;5.80;;;21.90;79.30;;;;;;4934618;29;20036;-78
2021/04/21 09:59:37;;;;;;;11.35;6.72;;;21.90;79.80;;;;;;4932290;29;20024;-79
2021/04/21 10:02:04;;;;;;;8.95;5.95;;;21.70;80.70;;;;;;4934238;29;20127;-78
2021/04/21 10:04:31;;;;;;;10.52;6.28;;;21.50;81.90;;;;;;4934441;29;20081;-79
2021/04/21 10:06:57;;;;;;;8.10;6.18;;;21.60;82.20;;;;;;4934479;29;20036;-78
2021/04/21 10:09:33;;;;;;;13.00;6.60;;;21.50;82.70;;;;;;4935265;29;20114;-78
2021/04/21 10:12:17;;;;;;;9.48;6.40;;;21.60;82.70;;;;;;4929627;29;20040;-78
2021/04/21 10:14:48;;;;;;;9.98;5.82;;;21.70;82.90;;;;;;4935070;29;20068;-78
2021/04/21 10:17:14;;;;;;;10.32;6.45;;;21.80;83.50;;;;;;4919256;29;20400;-78
2021/04/21 10:19:41;;;;;;;13.35;6.63;;;21.90;83.60;;;;;;4934865;29;20039;-78
2021/04/21 10:22:11;;;;;;;10.07;6.45;;;21.70;83.90;;;;;;4935059;29;20035;-78
2021/04/21 10:24:38;;;;;;;6.82;5.50;;;21.60;84.90;;;;;;4932600;29;20032;-79
2021/04/21 10:27:04;;;;;;;8.73;6.55;;;21.60;86.00;;;;;;4934803;29;20392;-78
2021/04/21 10:29:30;;;;;;;11.82;6.72;;;21.50;85.30;;;;;;4935345;29;20496;-78
2021/04/21 10:31:58;;;;;;;11.02;6.35;;;21.60;85.10;;;;;;4934748;29;20111;-78
2021/04/21 10:34:23;;;;;;;9.55;6.15;;;21.50;85.50;;;;;;4934869;29;20020;-79
2021/04/21 10:36:53;;;;;;;13.25;7.35;;;21.50;86.20;;;;;;4934637;29;20060;-77
2021/04/21 10:39:36;;;;;;;10.15;6.00;;;21.60;85.90;;;;;;4934937;29;20555;-78
2021/04/21 10:42:09;;;;;;;9.90;6.95;;;21.70;84.80;;;;;;4930557;29;20109;-77
2021/04/21 10:44:37;;;;;;;10.43;6.15;;;21.70;84.40;;;;;;4932307;29;20040;-76
2021/04/21 10:47:09;;;;;;;12.73;6.65;;;21.70;85.00;;;;;;4933525;29;20441;-78
2021/04/21 10:49:40;;;;;;;;;;;21.80;85.20;;;;;;4935017;29;20035;-76
2021/04/21 10:52:28;;;;;;;15.43;6.90;;;21.80;84.60;;;;;;4936771;29;19946;-79
2021/04/21 10:54:55;;;;;;;11.57;7.30;;;21.60;84.50;;;;;;4932969;29;20468;-78
2021/04/21 10:57:42;;;;;;;10.60;6.60;;;21.60;84.30;;;;;;4944817;29;20169;-78
2021/04/21 11:00:12;;;;;;;9.80;6.43;;;21.70;84.40;;;;;;4933997;29;20023;-77
2021/04/21 11:02:41;;;;;;;12.77;6.95;;;21.80;84.90;;;;;;4933393;29;20039;-77
2021/04/21 11:05:08;;;;;;;11.38;5.90;;;21.90;86.20;;;;;;4934797;29;20043;-77
2021/04/21 11:07:35;;;;;;;10.02;5.50;;;21.70;88.10;;;;;;4934349;29;20485;-77
2021/04/21 11:10:01;;;;;;;9.68;5.88;;;21.60;89.90;;;;;;4934606;29;20461;-76
2021/04/21 11:12:52;;;;;;;8.57;5.45;;;21.60;90.70;;;;;;4948575;29;20077;-76
2021/04/21 11:15:34;;;;;;;11.53;5.67;;;21.50;91.00;;;;;;4942806;29;20036;-76
2021/04/21 11:18:09;;;;;;;17.15;6.10;;;21.40;91.30;;;;;;4937304;29;20043;-75
2021/04/21 11:20:47;;;;;;;13.57;5.90;;;21.40;91.70;;;;;;4953963;29;20031;-77
2021/04/21 11:23:48;;;;;;;8.88;5.30;;;21.50;92.20;;;;;;4934685;29;20048;-76
2021/04/21 11:26:26;;;;;;;10.40;5.65;;;21.40;92.20;;;;;;4926716;29;20032;-76
2021/04/21 11:29:16;;;;;;;9.07;5.40;;;21.40;92.40;;;;;;4951092;29;20047;-76
2021/04/21 11:31:59;;;;;;;14.43;5.68;;;21.20;92.80;;;;;;4953812;29;20039;-76
2021/04/21 11:34:29;;;;;;;12.00;5.97;;;20.90;93.30;;;;;;4952779;29;20043;-75
2021/04/21 11:36:58;;;;;;;7.43;5.47;;;20.90;93.80;;;;;;4945828;29;20055;-76
2021/04/21 11:42:19;;;;;;;13.75;5.68;;;20.90;94.20;;;;;;4934769;29;20095;-73
2021/04/21 11:44:47;;;;;;;12.23;5.65;;;21.00;94.00;;;;;;4933634;29;20051;-75
2021/04/21 11:47:34;;;;;;;21.40;6.55;;;21.10;94.00;;;;;;4934133;29;20425;-76
2021/04/21 11:49:59;;;;;;;10.45;5.32;;;21.20;94.20;;;;;;4934301;29;20040;-75
2021/04/21 11:52:46;;;;;;;14.60;5.97;;;21.10;94.00;;;;;;4934196;29;20042;-75
2021/04/21 11:55:28;;;;;;;10.27;5.50;;;21.20;94.30;;;;;;4932091;29;20031;-76
2021/04/21 11:58:08;;;;;;;9.23;5.57;;;21.30;93.80;;;;;;4933144;29;20043;-76
2021/04/21 12:00:43;;;;;;;12.98;5.28;;;21.10;93.90;;;;;;4921861;29;20035;-74
2021/04/21 12:03:24;;;;;;;9.75;5.22;;;20.90;93.90;;;;;;4934264;29;20099;-76
2021/04/21 12:06:00;;;;;;;10.55;5.40;;;20.80;94.40;;;;;;4934475;29;20417;-76
2021/04/21 12:08:27;;;;;;;10.02;6.10;;;20.90;94.40;;;;;;4916954;29;20059;-77
2021/04/21 12:10:54;;;;;;;5.25;3.83;;;21.00;93.60;;;;;;4934360;29;20123;-77
2021/04/21 12:13:21;;;;;;;6.82;4.38;;;20.80;92.30;;;;;;4934991;29;20063;-75
2021/04/21 12:16:12;;;;;;;8.93;5.28;;;20.30;92.50;;;;;;4936647;29;20036;-75
2021/04/21 12:18:49;;;;;;;8.32;4.82;;;19.70;94.30;;;;;;4937624;29;20123;-76
2021/04/21 12:21:15;;;;;;;17.08;5.82;;;19.40;95.20;;;;;;4937762;29;20040;-76
2021/04/21 12:23:41;;;;;;;7.10;3.90;;;19.50;95.00;;;;;;4936863;29;20034;-76
2021/04/21 12:26:25;;;;;;;8.18;4.65;;;19.10;94.80;;;;;;4937099;29;20039;-76
2021/04/21 12:28:53;;;;;;;7.35;4.35;;;18.80;95.30;;;;;;4938088;29;20449;-76
2021/04/21 12:31:23;;;;;;;7.88;3.85;;;18.60;95.90;;;;;;4937306;29;20035;-76
2021/04/21 12:33:50;;;;;;;5.10;3.53;;;18.50;96.00;;;;;;4937072;29;20467;-76
2021/04/21 12:36:18;;;;;;;6.65;4.35;;;18.40;95.70;;;;;;4936638;29;20087;-76
2021/04/21 12:38:57;;;;;;;6.65;4.55;;;18.00;96.20;;;;;;4920329;29;20035;-76
2021/04/21 12:41:23;;;;;;;5.38;3.15;;;17.70;96.70;;;;;;4936588;29;20207;-78
2021/04/21 12:43:49;;;;;;;4.72;3.97;;;17.50;96.90;;;;;;4936577;29;20059;-76
2021/04/21 12:46:16;;;;;;;6.05;3.70;;;17.50;96.80;;;;;;4936093;29;20044;-78
2021/04/21 12:48:46;;;;;;;7.13;3.70;;;17.40;96.70;;;;;;4934057;29;20119;-77
2021/04/21 12:51:31;;;;;;;5.25;3.60;;;17.50;96.40;;;;;;4936634;29;20036;-78
2021/04/21 12:54:02;;;;;;;6.22;4.57;;;17.50;96.80;;;;;;4935765;29;20031;-78
2021/04/21 12:56:39;;;;;;;4.32;2.97;;;17.50;96.50;;;;;;4934201;29;20437;-78
2021/04/21 12:59:15;;;;;;;4.10;2.90;;;17.60;95.40;;;;;;4935131;29;20040;-77
2021/04/21 13:01:41;;;;;;;4.32;2.75;;;17.70;94.80;;;;;;4936146;29;20860;-78
2021/04/21 13:04:11;;;;;;;3.40;2.83;;;17.80;95.60;;;;;;4936409;29;20102;-78
2021/04/21 13:06:42;;;;;;;3.88;2.78;;;17.90;95.90;;;;;;4935906;29;20095;-78
2021/04/21 13:09:08;;;;;;;4.85;3.10;;;18.10;96.00;;;;;;4934312;29;20027;-78
2021/04/21 13:11:34;;;;;;;3.40;2.95;;;18.10;95.50;;;;;;4935634;29;20042;-78
2021/04/21 13:14:00;;;;;;;9.15;3.05;;;18.00;95.60;;;;;;4935951;29;20446;-77
2021/04/21 13:16:29;;;;;;;5.05;3.22;;;18.00;96.20;;;;;;4935854;29;20058;-76
2021/04/21 13:18:55;;;;;;;5.32;3.05;;;18.10;96.10;;;;;;4935690;29;20036;-77